sensor_id;sensor_type;location;lat;lon;timestamp;temperature;humidity
71117;SHT31;58775;46.992;9.518;2024-03-06T16:08:16;4.72;93.21
71117;SHT31;58775;46.992;9.518;2024-03-06T16:10:17;4.82;92.81
71117;SHT31;58775;46.992;9.518;2024-03-06T16:12:20;4.93;92.42
71117;SHT31;58775;46.992;9.518;2024-03-06T16:14:22;4.60;91.98
71117;SHT31;58775;46.992;9.518;2024-03-06T16:16:22;4.58;92.55
71117;SHT31;58775;46.992;9.518;2024-03-06T16:18:23;4.73;92.49
71117;SHT31;58775;46.992;9.518;2024-03-06T16:20:24;4.73;92.62
71117;SHT31;58775;46.992;9.518;2024-03-06T16:22:25;4.58;93.06
71117;SHT31;58775;46.992;9.518;2024-03-06T16:24:26;4.76;92.14
71117;SHT31;58775;46.992;9.518;2024-03-06T16:26:31;4.85;92.42
71117;SHT31;58775;46.992;9.518;2024-03-06T16:28:33;4.69;92.84
71117;SHT31;58775;46.992;9.518;2024-03-06T16:30:34;4.71;92.63
71117;SHT31;58775;46.992;9.518;2024-03-06T16:32:35;4.81;91.41
71117;SHT31;58775;46.992;9.518;2024-03-06T16:34:35;4.67;93.04
71117;SHT31;58775;46.992;9.518;2024-03-06T16:36:37;4.64;92.34
71117;SHT31;58775;46.992;9.518;2024-03-06T16:38:39;4.58;93.51
71117;SHT31;58775;46.992;9.518;2024-03-06T16:40:42;4.72;92.73
71117;SHT31;58775;46.992;9.518;2024-03-06T16:42:43;4.45;92.78
71117;SHT31;58775;46.992;9.518;2024-03-06T16:44:44;4.50;93.77
71117;SHT31;58775;46.992;9.518;2024-03-06T16:46:45;4.52;93.21
71117;SHT31;58775;46.992;9.518;2024-03-06T16:48:46;4.58;92.33
71117;SHT31;58775;46.992;9.518;2024-03-06T16:50:47;4.48;91.24
71117;SHT31;58775;46.992;9.518;2024-03-06T16:52:48;4.45;91.73
71117;SHT31;58775;46.992;9.518;2024-03-06T16:54:54;4.25;92.68
71117;SHT31;58775;46.992;9.518;2024-03-06T16:56:56;4.07;95.19
71117;SHT31;58775;46.992;9.518;2024-03-06T16:59:02;4.10;94.40
71117;SHT31;58775;46.992;9.518;2024-03-06T17:01:03;4.25;93.16
71117;SHT31;58775;46.992;9.518;2024-03-06T17:03:05;4.36;92.47
71117;SHT31;58775;46.992;9.518;2024-03-06T17:05:06;4.33;93.91
71117;SHT31;58775;46.992;9.518;2024-03-06T17:07:07;4.47;93.25
71117;SHT31;58775;46.992;9.518;2024-03-06T17:09:10;4.18;94.07
71117;SHT31;58775;46.992;9.518;2024-03-06T17:11:12;4.14;94.65
71117;SHT31;58775;46.992;9.518;2024-03-06T17:13:13;4.24;93.84
71117;SHT31;58775;46.992;9.518;2024-03-06T17:15:15;4.41;93.71
71117;SHT31;58775;46.992;9.518;2024-03-06T17:17:15;4.24;94.25
71117;SHT31;58775;46.992;9.518;2024-03-06T17:19:16;4.31;94.31
71117;SHT31;58775;46.992;9.518;2024-03-06T17:21:17;4.38;93.56
71117;SHT31;58775;46.992;9.518;2024-03-06T17:23:18;4.41;93.37
71117;SHT31;58775;46.992;9.518;2024-03-06T17:25:19;4.27;92.90
71117;SHT31;58775;46.992;9.518;2024-03-06T17:27:20;4.16;94.29
71117;SHT31;58775;46.992;9.518;2024-03-06T17:29:28;4.01;95.17
71117;SHT31;58775;46.992;9.518;2024-03-06T17:31:36;4.16;93.75
71117;SHT31;58775;46.992;9.518;2024-03-06T17:33:38;4.22;93.39
71117;SHT31;58775;46.992;9.518;2024-03-06T17:35:42;4.25;93.64
71117;SHT31;58775;46.992;9.518;2024-03-06T17:37:46;4.29;93.52
71117;SHT31;58775;46.992;9.518;2024-03-06T17:39:53;4.27;94.10
71117;SHT31;58775;46.992;9.518;2024-03-06T17:41:56;4.29;93.62
71117;SHT31;58775;46.992;9.518;2024-03-06T17:43:58;4.24;93.69
71117;SHT31;58775;46.992;9.518;2024-03-06T17:45:58;4.21;94.76
71117;SHT31;58775;46.992;9.518;2024-03-06T17:48:01;4.22;94.79
71117;SHT31;58775;46.992;9.518;2024-03-06T17:50:02;4.34;93.48
71117;SHT31;58775;46.992;9.518;2024-03-06T17:52:06;4.41;93.02
71117;SHT31;58775;46.992;9.518;2024-03-06T17:54:09;4.40;93.44
71117;SHT31;58775;46.992;9.518;2024-03-06T17:56:17;4.44;92.94
71117;SHT31;58775;46.992;9.518;2024-03-06T17:58:19;4.31;94.01
71117;SHT31;58775;46.992;9.518;2024-03-06T18:00:22;4.22;95.45
71117;SHT31;58775;46.992;9.518;2024-03-06T18:02:26;4.20;94.04
71117;SHT31;58775;46.992;9.518;2024-03-06T18:05:01;4.27;93.90
71117;SHT31;58775;46.992;9.518;2024-03-06T18:07:07;4.34;92.18
71117;SHT31;58775;46.992;9.518;2024-03-06T18:09:10;4.27;92.79
71117;SHT31;58775;46.992;9.518;2024-03-06T18:11:19;4.20;93.31
71117;SHT31;58775;46.992;9.518;2024-03-06T18:13:22;4.21;93.39
71117;SHT31;58775;46.992;9.518;2024-03-06T18:15:22;4.21;92.84
71117;SHT31;58775;46.992;9.518;2024-03-06T18:17:23;4.30;92.55
71117;SHT31;58775;46.992;9.518;2024-03-06T18:19:25;4.27;92.73
71117;SHT31;58775;46.992;9.518;2024-03-06T18:21:26;4.22;93.14
71117;SHT31;58775;46.992;9.518;2024-03-06T18:23:27;4.21;93.15
71117;SHT31;58775;46.992;9.518;2024-03-06T18:25:28;4.29;92.09
71117;SHT31;58775;46.992;9.518;2024-03-06T18:27:30;4.21;92.46
71117;SHT31;58775;46.992;9.518;2024-03-06T18:29:32;4.03;92.86
71117;SHT31;58775;46.992;9.518;2024-03-06T18:31:33;4.10;93.02
71117;SHT31;58775;46.992;9.518;2024-03-06T18:33:33;4.16;93.14
71117;SHT31;58775;46.992;9.518;2024-03-06T18:35:34;4.22;92.92
71117;SHT31;58775;46.992;9.518;2024-03-06T18:37:35;4.18;92.50
71117;SHT31;58775;46.992;9.518;2024-03-06T18:39:36;4.07;94.32
71117;SHT31;58775;46.992;9.518;2024-03-06T18:41:37;4.13;93.71
71117;SHT31;58775;46.992;9.518;2024-03-06T18:43:38;4.14;93.91
71117;SHT31;58775;46.992;9.518;2024-03-06T18:45:39;4.11;93.87
71117;SHT31;58775;46.992;9.518;2024-03-06T18:47:40;4.14;94.33
71117;SHT31;58775;46.992;9.518;2024-03-06T18:49:43;4.18;93.89
71117;SHT31;58775;46.992;9.518;2024-03-06T18:51:47;4.22;94.06
71117;SHT31;58775;46.992;9.518;2024-03-06T18:53:49;4.25;93.48
71117;SHT31;58775;46.992;9.518;2024-03-06T18:55:50;4.24;94.07
71117;SHT31;58775;46.992;9.518;2024-03-06T18:57:51;4.25;93.90
71117;SHT31;58775;46.992;9.518;2024-03-06T18:59:53;4.17;94.95
71117;SHT31;58775;46.992;9.518;2024-03-06T19:01:54;4.21;94.27
71117;SHT31;58775;46.992;9.518;2024-03-06T19:03:56;4.27;94.05
71117;SHT31;58775;46.992;9.518;2024-03-06T19:05:57;4.21;93.88
71117;SHT31;58775;46.992;9.518;2024-03-06T19:07:57;4.24;93.37
71117;SHT31;58775;46.992;9.518;2024-03-06T19:09:58;4.31;93.27
71117;SHT31;58775;46.992;9.518;2024-03-06T19:11:59;4.27;92.82
71117;SHT31;58775;46.992;9.518;2024-03-06T19:14:00;4.20;92.91
71117;SHT31;58775;46.992;9.518;2024-03-06T19:16:01;4.10;93.80
71117;SHT31;58775;46.992;9.518;2024-03-06T19:18:02;4.18;93.22
71117;SHT31;58775;46.992;9.518;2024-03-06T19:20:06;4.25;93.09
71117;SHT31;58775;46.992;9.518;2024-03-06T19:22:07;4.01;94.33
71117;SHT31;58775;46.992;9.518;2024-03-06T19:24:11;4.00;95.11
71117;SHT31;58775;46.992;9.518;2024-03-06T19:26:11;4.14;94.05
71117;SHT31;58775;46.992;9.518;2024-03-06T19:28:12;4.10;94.59
71117;SHT31;58775;46.992;9.518;2024-03-06T19:30:13;4.24;96.23
71117;SHT31;58775;46.992;9.518;2024-03-06T19:32:14;4.27;94.64
71117;SHT31;58775;46.992;9.518;2024-03-06T19:34:15;4.31;93.25
71117;SHT31;58775;46.992;9.518;2024-03-06T19:36:17;4.33;93.04
71117;SHT31;58775;46.992;9.518;2024-03-06T19:38:18;4.31;93.12
71117;SHT31;58775;46.992;9.518;2024-03-06T19:40:19;4.24;92.64
71117;SHT31;58775;46.992;9.518;2024-03-06T19:42:20;4.21;93.29
71117;SHT31;58775;46.992;9.518;2024-03-06T19:44:22;4.21;93.21
71117;SHT31;58775;46.992;9.518;2024-03-06T19:46:29;4.24;93.19
71117;SHT31;58775;46.992;9.518;2024-03-06T19:48:30;4.25;92.70
71117;SHT31;58775;46.992;9.518;2024-03-06T19:50:31;4.09;93.50
71117;SHT31;58775;46.992;9.518;2024-03-06T19:52:31;4.06;93.51
71117;SHT31;58775;46.992;9.518;2024-03-06T19:54:32;4.04;93.66
71117;SHT31;58775;46.992;9.518;2024-03-06T19:56:33;4.01;93.66
71117;SHT31;58775;46.992;9.518;2024-03-06T19:58:34;4.03;93.83
71117;SHT31;58775;46.992;9.518;2024-03-06T20:00:35;3.96;93.99
71117;SHT31;58775;46.992;9.518;2024-03-06T20:02:36;3.90;94.77
71117;SHT31;58775;46.992;9.518;2024-03-06T20:04:36;3.91;94.71
71117;SHT31;58775;46.992;9.518;2024-03-06T20:06:37;3.89;94.26
71117;SHT31;58775;46.992;9.518;2024-03-06T20:08:38;3.91;94.50
71117;SHT31;58775;46.992;9.518;2024-03-06T20:10:39;3.93;94.54
71117;SHT31;58775;46.992;9.518;2024-03-06T20:12:40;3.94;94.23
71117;SHT31;58775;46.992;9.518;2024-03-06T20:14:41;3.93;93.93
71117;SHT31;58775;46.992;9.518;2024-03-06T20:16:42;3.87;94.99
71117;SHT31;58775;46.992;9.518;2024-03-06T20:18:43;3.96;94.62
71117;SHT31;58775;46.992;9.518;2024-03-06T20:20:44;3.97;93.96
71117;SHT31;58775;46.992;9.518;2024-03-06T20:22:45;4.03;94.12
71117;SHT31;58775;46.992;9.518;2024-03-06T20:24:46;4.00;93.22
71117;SHT31;58775;46.992;9.518;2024-03-06T20:26:47;3.79;94.96
71117;SHT31;58775;46.992;9.518;2024-03-06T20:28:48;3.80;94.52
71117;SHT31;58775;46.992;9.518;2024-03-06T20:30:51;3.79;93.64
71117;SHT31;58775;46.992;9.518;2024-03-06T20:32:53;3.79;94.86
71117;SHT31;58775;46.992;9.518;2024-03-06T20:34:53;3.82;94.10
71117;SHT31;58775;46.992;9.518;2024-03-06T20:36:55;3.83;94.35
71117;SHT31;58775;46.992;9.518;2024-03-06T20:38:56;3.87;94.10
71117;SHT31;58775;46.992;9.518;2024-03-06T20:40:56;3.87;94.25
71117;SHT31;58775;46.992;9.518;2024-03-06T20:42:57;3.90;93.91
71117;SHT31;58775;46.992;9.518;2024-03-06T20:44:58;3.94;93.75
71117;SHT31;58775;46.992;9.518;2024-03-06T20:46:59;3.87;94.11
71117;SHT31;58775;46.992;9.518;2024-03-06T20:49:02;3.82;93.90
71117;SHT31;58775;46.992;9.518;2024-03-06T20:51:04;3.86;94.10
71117;SHT31;58775;46.992;9.518;2024-03-06T20:53:09;3.70;94.59
71117;SHT31;58775;46.992;9.518;2024-03-06T20:55:12;3.69;94.96
71117;SHT31;58775;46.992;9.518;2024-03-06T20:57:13;3.78;93.99
71117;SHT31;58775;46.992;9.518;2024-03-06T20:59:19;3.83;94.05
71117;SHT31;58775;46.992;9.518;2024-03-06T21:01:29;3.87;94.02
71117;SHT31;58775;46.992;9.518;2024-03-06T21:03:33;3.89;94.06
71117;SHT31;58775;46.992;9.518;2024-03-06T21:05:52;3.89;93.47
71117;SHT31;58775;46.992;9.518;2024-03-06T21:07:53;3.73;94.42
71117;SHT31;58775;46.992;9.518;2024-03-06T21:10:31;3.66;95.53
71117;SHT31;58775;46.992;9.518;2024-03-06T21:12:38;3.66;95.14
71117;SHT31;58775;46.992;9.518;2024-03-06T21:15:01;3.60;95.28
71117;SHT31;58775;46.992;9.518;2024-03-06T21:17:51;3.82;94.26
